createdAt,value
2022-11-16T00:01:22.813Z,95.95
2022-11-16T00:05:34.408Z,96.12
2022-11-16T00:09:46.676Z,96.38
2022-11-16T00:13:58.329Z,96.98
2022-11-16T00:18:09.983Z,97.07
2022-11-16T00:22:21.557Z,96.99
2022-11-16T00:26:33.211Z,96.95
2022-11-16T00:30:44.929Z,96.84
2022-11-16T00:34:56.543Z,97.30
2022-11-16T00:39:11.740Z,97.26
2022-11-16T00:43:23.395Z,97.51
2022-11-16T00:47:36.174Z,97.29
2022-11-16T00:51:47.983Z,97.34
2022-11-16T00:55:59.607Z,97.91
2022-11-16T01:00:11.882Z,98.32
2022-11-16T01:04:23.523Z,98.21
2022-11-16T01:08:37.282Z,98.27
2022-11-16T01:12:50.775Z,98.54
2022-11-16T01:17:02.401Z,98.51
2022-11-16T01:21:14.048Z,98.99
2022-11-16T01:25:25.667Z,98.78
2022-11-16T01:29:37.543Z,99.18
2022-11-16T01:33:49.252Z,99.04
2022-11-16T01:38:08.507Z,98.91
2022-11-16T01:42:24.722Z,98.95
2022-11-16T01:46:39.633Z,99.14
2022-11-16T01:50:56.386Z,99.22
2022-11-16T01:55:08.581Z,98.68
2022-11-16T01:59:32.914Z,98.43
2022-11-16T02:03:44.700Z,98.72
2022-11-16T02:08:22.205Z,98.62
2022-11-16T02:12:50.534Z,98.68
2022-11-16T02:17:32.155Z,98.87
2022-11-16T02:21:58.581Z,98.54
2022-11-16T02:26:37.676Z,98.42
2022-11-16T02:30:53.755Z,98.51
2022-11-16T02:35:16.593Z,98.70
2022-11-16T02:39:32.285Z,98.84
2022-11-16T02:43:48.958Z,98.53
2022-11-16T02:48:08.506Z,98.23
2022-11-16T02:52:23.452Z,98.19
2022-11-16T02:56:50.225Z,98.52
2022-11-16T03:01:15.872Z,98.30
2022-11-16T03:05:36.696Z,98.35
2022-11-16T03:09:54.515Z,98.58
2022-11-16T03:14:11.802Z,98.74
2022-11-16T03:18:28.975Z,98.70
2022-11-16T03:22:50.474Z,98.74
2022-11-16T03:27:16.727Z,98.78
2022-11-16T03:31:34.670Z,98.95
2022-11-16T03:35:59.072Z,98.70
2022-11-16T03:40:12.607Z,99.06
2022-11-16T03:44:24.632Z,98.62
2022-11-16T03:48:38.631Z,98.99
2022-11-16T03:52:56.519Z,99.20
2022-11-16T03:57:09.704Z,99.01
2022-11-16T04:01:21.477Z,98.70
2022-11-16T04:05:53.582Z,99.13
2022-11-16T04:10:24.333Z,98.94
2022-11-16T04:14:54.557Z,99.08
2022-11-16T04:19:28.045Z,99.00
2022-11-16T04:23:58.624Z,99.18
2022-11-16T04:28:13.659Z,99.30
2022-11-16T04:32:48.187Z,99.45
2022-11-16T04:37:19.715Z,99.11
2022-11-16T04:41:52.390Z,99.02
2022-11-16T04:46:23.238Z,98.90
2022-11-16T04:50:35.023Z,98.79
2022-11-16T04:54:47.111Z,98.45
2022-11-16T04:58:58.623Z,98.25
2022-11-16T05:03:10.658Z,98.25
2022-11-16T05:07:23.772Z,97.85
2022-11-16T05:11:38.540Z,97.91
2022-11-16T05:15:50.264Z,97.84
2022-11-16T05:20:21.034Z,97.70
2022-11-16T05:24:36.293Z,97.60
2022-11-16T05:28:49.593Z,97.54
2022-11-16T05:33:01.279Z,97.45
2022-11-16T05:37:16.829Z,97.21
2022-11-16T05:41:29.513Z,97.03
2022-11-16T05:45:43.434Z,97.12
2022-11-16T05:49:57.605Z,96.92
2022-11-16T05:54:13.802Z,97.18
2022-11-16T05:58:25.635Z,97.20
2022-11-16T06:02:38.191Z,97.25
2022-11-16T06:06:49.827Z,97.24
2022-11-16T06:11:08.857Z,97.39
2022-11-16T06:15:21.556Z,97.39
2022-11-16T06:19:34.657Z,97.47
2022-11-16T06:23:47.303Z,97.05
2022-11-16T06:28:04.034Z,97.06
2022-11-16T06:32:18.574Z,96.99
2022-11-16T06:36:30.399Z,96.69
2022-11-16T06:40:43.008Z,96.52
2022-11-16T06:44:54.620Z,96.20
2022-11-16T06:49:11.164Z,95.97
2022-11-16T06:53:28.809Z,95.92
2022-11-16T06:57:41.490Z,95.65
2022-11-16T07:01:53.625Z,95.31
2022-11-16T07:06:10.496Z,95.12
2022-11-16T07:10:24.465Z,94.90
2022-11-16T07:14:37.427Z,94.60
2022-11-16T07:18:50.702Z,94.58
2022-11-16T07:23:03.360Z,94.73
2022-11-16T07:27:14.935Z,94.80
2022-11-16T07:31:30.077Z,94.98
2022-11-16T07:36:13.973Z,95.21
2022-11-16T07:40:25.650Z,95.36
2022-11-16T07:44:38.972Z,95.12
2022-11-16T07:48:54.301Z,95.49
2022-11-16T07:53:29.423Z,96.18
2022-11-16T07:57:41.482Z,96.40
2022-11-16T08:01:55.733Z,96.49
2022-11-16T08:06:13.194Z,96.56
2022-11-16T08:10:24.828Z,96.42
2022-11-16T08:14:36.561Z,96.38
2022-11-16T08:18:48.922Z,96.58
2022-11-16T08:23:01.442Z,96.61
2022-11-16T08:27:17.466Z,96.78
2022-11-16T08:31:32.347Z,97.35
2022-11-16T08:35:57.277Z,97.76
2022-11-16T08:40:10.794Z,96.83
2022-11-16T08:44:24.542Z,95.29
2022-11-16T08:48:39.131Z,92.64
2022-11-16T08:52:51.421Z,92.05
2022-11-16T08:57:03.504Z,91.57
2022-11-16T09:01:19.538Z,92.52
2022-11-16T09:05:31.056Z,89.86
2022-11-16T09:09:42.557Z,85.91
2022-11-16T09:13:55.639Z,83.58
2022-11-16T09:18:07.344Z,81.18
2022-11-16T09:22:19.033Z,78.39
2022-11-16T09:26:31.238Z,78.18
2022-11-16T09:30:44.197Z,75.93
2022-11-16T09:34:55.839Z,71.80
2022-11-16T09:39:29.648Z,69.88
2022-11-16T09:43:54.355Z,69.92
2022-11-16T09:48:12.103Z,67.63
2022-11-16T09:52:33.340Z,67.56
2022-11-16T09:56:47.655Z,65.80
2022-11-16T10:01:16.051Z,64.93
2022-11-16T10:05:43.684Z,63.83
2022-11-16T10:09:56.246Z,63.94
2022-11-16T10:14:26.083Z,64.89
2022-11-16T10:18:49.084Z,65.30
2022-11-16T10:23:06.987Z,65.68
2022-11-16T10:27:52.885Z,65.37
2022-11-16T10:32:17.834Z,65.67
2022-11-16T10:36:32.596Z,65.00
2022-11-16T10:40:49.646Z,64.35
2022-11-16T10:45:11.647Z,65.34
2022-11-16T10:49:35.940Z,64.88
2022-11-16T10:53:47.708Z,64.48
2022-11-16T10:58:05.291Z,64.92
2022-11-16T11:02:20.480Z,65.71
2022-11-16T11:06:32.114Z,67.01
2022-11-16T11:10:44.054Z,66.83
2022-11-16T11:15:26.182Z,65.82
2022-11-16T11:19:38.297Z,65.93
2022-11-16T11:23:52.934Z,64.47
2022-11-16T11:28:31.974Z,64.63
2022-11-16T11:32:44.748Z,65.48
2022-11-16T11:37:05.125Z,63.91
2022-11-16T11:41:19.012Z,64.74
2022-11-16T11:45:45.359Z,63.51
2022-11-16T11:50:18.624Z,62.97
2022-11-16T11:54:35.900Z,62.18
2022-11-16T11:58:48.599Z,61.59
2022-11-16T12:03:22.732Z,62.28
2022-11-16T12:08:07.271Z,62.28
2022-11-16T12:12:31.378Z,62.36
2022-11-16T12:17:04.602Z,62.06
2022-11-16T12:22:03.141Z,62.81
2022-11-16T12:26:41.162Z,62.11
2022-11-16T12:30:55.728Z,61.98
2022-11-16T12:35:41.587Z,62.88
2022-11-16T12:40:20.374Z,63.00
2022-11-16T12:45:09.541Z,63.19
2022-11-16T12:49:33.036Z,63.53
2022-11-16T12:54:10.736Z,63.62
2022-11-16T12:58:27.620Z,63.83
2022-11-16T13:03:12.872Z,64.07
2022-11-16T13:07:44.198Z,64.73
2022-11-16T13:12:00.577Z,65.56
2022-11-16T13:16:17.231Z,65.66
2022-11-16T13:20:40.156Z,65.67
2022-11-16T13:25:12.962Z,65.90
2022-11-16T13:29:50.713Z,65.85
2022-11-16T13:34:07.028Z,65.60
2022-11-16T13:38:54.701Z,65.79
2022-11-16T13:43:09.301Z,66.14
2022-11-16T13:47:25.387Z,65.99
2022-11-16T13:51:37.087Z,66.36
2022-11-16T13:55:58.521Z,66.08
2022-11-16T14:00:11.979Z,66.02
2022-11-16T14:04:39.385Z,66.47
2022-11-16T14:08:58.583Z,66.82
2022-11-16T14:13:36.391Z,67.04
2022-11-16T14:18:03.291Z,66.95
2022-11-16T14:22:45.538Z,67.19
2022-11-16T14:27:30.265Z,67.14
2022-11-16T14:31:57.531Z,67.40
2022-11-16T14:36:10.506Z,67.45
2022-11-16T14:40:22.233Z,67.70
2022-11-16T14:44:39.065Z,67.66
2022-11-16T14:48:51.025Z,67.59
2022-11-16T14:53:06.569Z,67.69
2022-11-16T14:57:23.844Z,67.46
2022-11-16T15:01:39.225Z,68.16
2022-11-16T15:05:51.084Z,68.08
2022-11-16T15:10:02.897Z,68.51
2022-11-16T15:14:18.678Z,68.34
2022-11-16T15:18:30.383Z,68.27
2022-11-16T15:22:44.974Z,68.42
2022-11-16T15:27:06.572Z,68.95
2022-11-16T15:31:20.908Z,69.52
2022-11-16T15:35:35.550Z,69.78
2022-11-16T15:39:47.154Z,70.32
2022-11-16T15:44:16.535Z,70.63
2022-11-16T15:48:29.816Z,70.77
2022-11-16T15:52:45.687Z,71.58
2022-11-16T15:57:09.572Z,71.63
2022-11-16T16:01:22.346Z,72.38
2022-11-16T16:05:39.172Z,72.73
2022-11-16T16:10:19.548Z,72.62
2022-11-16T16:14:31.595Z,73.52
2022-11-16T16:18:44.719Z,73.75
2022-11-16T16:23:12.993Z,73.72
2022-11-16T16:27:27.185Z,73.68
2022-11-16T16:31:38.740Z,73.78
2022-11-16T16:35:50.979Z,74.28
2022-11-16T16:40:02.677Z,74.42
2022-11-16T16:44:15.374Z,74.76
2022-11-16T16:48:26.928Z,74.59
2022-11-16T16:52:38.469Z,75.11
2022-11-16T16:56:50.243Z,74.83
2022-11-16T17:01:05.082Z,75.44
2022-11-16T17:05:16.803Z,75.50
2022-11-16T17:09:28.416Z,75.63
2022-11-16T17:13:39.951Z,76.04
2022-11-16T17:17:51.506Z,76.18
2022-11-16T17:22:03.245Z,76.36
2022-11-16T17:26:14.831Z,76.69
2022-11-16T17:30:26.415Z,76.53
2022-11-16T17:34:39.901Z,76.61
2022-11-16T17:38:51.466Z,76.80
2022-11-16T17:43:03.261Z,76.96
2022-11-16T17:47:14.871Z,77.06
2022-11-16T17:51:27.112Z,76.77
2022-11-16T17:55:38.628Z,77.08
2022-11-16T17:59:50.128Z,77.14
2022-11-16T18:04:02.540Z,77.12
2022-11-16T18:08:14.054Z,77.26
2022-11-16T18:12:25.602Z,77.41
2022-11-16T18:16:37.248Z,77.22
2022-11-16T18:20:50.787Z,77.82
2022-11-16T18:25:02.310Z,78.09
2022-11-16T18:29:16.193Z,77.91
2022-11-16T18:33:30.460Z,78.14
2022-11-16T18:37:42.507Z,78.24
2022-11-16T18:41:55.341Z,78.63
2022-11-16T18:46:07.746Z,78.40
2022-11-16T18:50:26.503Z,78.69
2022-11-16T18:54:38.448Z,78.87
2022-11-16T18:58:51.980Z,78.94
2022-11-16T19:03:09.890Z,79.05
2022-11-16T19:07:22.731Z,78.86
2022-11-16T19:11:34.389Z,78.91
2022-11-16T19:15:46.313Z,79.05
2022-11-16T19:19:57.826Z,79.30
2022-11-16T19:24:09.546Z,79.07
2022-11-16T19:28:21.053Z,79.43
2022-11-16T19:32:32.627Z,79.78
2022-11-16T19:36:44.178Z,79.59
2022-11-16T19:40:55.668Z,79.66
2022-11-16T19:45:07.598Z,79.62
2022-11-16T19:49:20.610Z,79.85
2022-11-16T19:53:32.916Z,79.93
2022-11-16T19:57:44.616Z,79.79
2022-11-16T20:01:56.104Z,79.99
2022-11-16T20:06:29.320Z,79.59
2022-11-16T20:10:40.892Z,79.99
2022-11-16T20:14:52.587Z,79.68
2022-11-16T20:19:04.673Z,80.08
2022-11-16T20:23:16.229Z,79.81
2022-11-16T20:27:27.776Z,79.87
2022-11-16T20:31:42.550Z,80.24
2022-11-16T20:36:00.398Z,80.33
2022-11-16T20:40:12.311Z,80.59
2022-11-16T20:44:23.960Z,80.42
2022-11-16T20:48:36.180Z,80.26
2022-11-16T20:52:52.561Z,80.35
2022-11-16T20:57:04.753Z,80.75
2022-11-16T21:01:28.444Z,80.75
2022-11-16T21:05:44.845Z,80.92
2022-11-16T21:10:14.915Z,81.17
2022-11-16T21:14:26.569Z,81.11
2022-11-16T21:18:39.200Z,81.26
2022-11-16T21:22:50.955Z,81.37
2022-11-16T21:27:02.505Z,81.30
2022-11-16T21:31:19.640Z,81.48
2022-11-16T21:35:31.135Z,81.54
2022-11-16T21:39:42.644Z,81.59
2022-11-16T21:43:54.384Z,81.68
2022-11-16T21:48:06.105Z,81.80
2022-11-16T21:52:17.587Z,82.04
2022-11-16T21:56:29.157Z,82.02
2022-11-16T22:00:40.693Z,81.92
2022-11-16T22:05:10.889Z,82.24
2022-11-16T22:09:22.422Z,81.91
2022-11-16T22:13:34.830Z,82.06
2022-11-16T22:17:46.696Z,82.35
2022-11-16T22:21:59.411Z,82.37
2022-11-16T22:26:12.449Z,82.24
2022-11-16T22:30:24.013Z,82.39
2022-11-16T22:34:35.857Z,82.25
2022-11-16T22:38:47.485Z,82.52
2022-11-16T22:42:59.496Z,82.52
2022-11-16T22:47:11.112Z,82.39
2022-11-16T22:51:26.943Z,82.43
2022-11-16T22:55:38.800Z,82.66
2022-11-16T22:59:50.307Z,83.13
2022-11-16T23:04:01.904Z,83.16
2022-11-16T23:08:13.434Z,83.89
2022-11-16T23:12:43.550Z,84.61
2022-11-16T23:16:55.346Z,85.14
2022-11-16T23:21:25.554Z,86.10
2022-11-16T23:25:55.919Z,87.41
2022-11-16T23:30:12.491Z,88.08
2022-11-16T23:34:24.769Z,88.54
2022-11-16T23:38:36.277Z,89.78
2022-11-16T23:43:06.343Z,89.85
2022-11-16T23:47:17.914Z,90.31
2022-11-16T23:51:29.432Z,90.89
2022-11-16T23:55:41.674Z,91.59
2022-11-16T23:59:53.265Z,91.66
